createdAt,value
2023-02-16T00:00:04.516Z,511.8
2023-02-16T00:01:07.564Z,511.8
2023-02-16T00:02:10.354Z,512
2023-02-16T00:03:12.887Z,511.8
2023-02-16T00:04:14.862Z,511.2
2023-02-16T00:05:17.078Z,511.4
2023-02-16T00:06:19.299Z,511.3
2023-02-16T00:07:21.797Z,511.4
2023-02-16T00:08:24.327Z,511.5
2023-02-16T00:09:26.566Z,511.3
2023-02-16T00:10:29.074Z,511.3
2023-02-16T00:11:31.573Z,511
2023-02-16T00:12:34.096Z,511.2
2023-02-16T00:13:36.608Z,511.4
2023-02-16T00:14:39.221Z,511.3
2023-02-16T00:15:41.985Z,511.1
2023-02-16T00:16:44.237Z,511.5
2023-02-16T00:17:46.759Z,511.6
2023-02-16T00:18:48.994Z,511.4
2023-02-16T00:19:51.513Z,511.8
2023-02-16T00:20:54.016Z,511.8
2023-02-16T00:21:56.535Z,512.1
2023-02-16T00:22:59.037Z,512.6
2023-02-16T00:24:01.604Z,512.5
2023-02-16T00:25:04.168Z,512.7
2023-02-16T00:26:06.402Z,512.9
2023-02-16T00:27:08.601Z,513.3
2023-02-16T00:28:11.116Z,513.2
2023-02-16T00:29:13.346Z,513.5
2023-02-16T00:30:16.287Z,513.7
2023-02-16T00:31:19.796Z,513.9
2023-02-16T00:32:22.894Z,513.8
2023-02-16T00:33:25.424Z,513.4
2023-02-16T00:34:27.938Z,513.9
2023-02-16T00:35:30.436Z,514.5
2023-02-16T00:36:32.924Z,514.4
2023-02-16T00:37:35.421Z,514.6
2023-02-16T00:38:37.625Z,514.9
2023-02-16T00:39:39.849Z,514.6
2023-02-16T00:40:42.421Z,515
2023-02-16T00:41:44.984Z,515.4
2023-02-16T00:42:47.529Z,515
2023-02-16T00:43:50.044Z,515.1
2023-02-16T00:44:52.295Z,514.9
2023-02-16T00:45:55.057Z,514.8
2023-02-16T00:46:57.411Z,515.5
2023-02-16T00:47:59.912Z,515.4
2023-02-16T00:49:02.440Z,515.4
2023-02-16T00:50:04.931Z,515.7
2023-02-16T00:52:12.396Z,514.9
2023-02-16T00:53:14.931Z,515.1
2023-02-16T00:54:17.171Z,515.1
2023-02-16T00:55:19.701Z,515.6
2023-02-16T00:56:21.898Z,515.4
2023-02-16T00:57:24.228Z,516.4
2023-02-16T00:58:26.890Z,516.1
2023-02-16T00:59:29.156Z,516.6
2023-02-16T01:00:31.713Z,516.4
2023-02-16T01:01:34.714Z,516.4
2023-02-16T01:02:37.429Z,516.5
2023-02-16T01:03:39.678Z,516.5
2023-02-16T01:04:42.230Z,515.8
2023-02-16T01:05:44.253Z,516
2023-02-16T01:06:46.757Z,516
2023-02-16T01:07:48.743Z,516
2023-02-16T01:08:50.969Z,515.9
2023-02-16T01:09:52.911Z,516
2023-02-16T01:10:54.869Z,516.3
2023-02-16T01:11:57.108Z,516.1
2023-02-16T01:12:59.406Z,516
2023-02-16T01:14:01.633Z,515.6
2023-02-16T01:15:03.868Z,515.1
2023-02-16T01:16:06.500Z,514.7
2023-02-16T01:17:08.783Z,514.4
2023-02-16T01:18:11.399Z,514.6
2023-02-16T01:19:13.658Z,514.9
2023-02-16T01:20:16.172Z,514.7
2023-02-16T01:21:18.396Z,515.2
2023-02-16T01:22:20.618Z,515.1
2023-02-16T01:23:22.852Z,515.3
2023-02-16T01:24:24.541Z,515.2
2023-02-16T01:25:27.045Z,514.6
2023-02-16T01:26:29.585Z,514.9
2023-02-16T01:27:32.077Z,513.7
2023-02-16T01:28:34.566Z,514.2
2023-02-16T01:29:37.078Z,514.2
2023-02-16T01:30:39.308Z,513.6
2023-02-16T01:31:42.629Z,513.9
2023-02-16T01:32:45.243Z,513.9
2023-02-16T01:33:48.037Z,513.9
2023-02-16T01:34:50.258Z,513.9
2023-02-16T01:35:52.577Z,513.7
2023-02-16T01:36:55.104Z,514.3
2023-02-16T01:37:57.355Z,513.7
2023-02-16T01:38:59.847Z,514.4
2023-02-16T01:40:02.368Z,513.8
2023-02-16T01:41:06.464Z,513.7
2023-02-16T01:42:08.746Z,514.2
2023-02-16T01:43:11.019Z,514.6
2023-02-16T01:44:13.591Z,514.3
2023-02-16T01:45:15.820Z,514.6
2023-02-16T01:46:18.396Z,513.9
2023-02-16T01:47:20.647Z,514.2
2023-02-16T01:48:23.222Z,514.1
2023-02-16T01:49:25.586Z,514.1
2023-02-16T01:50:28.073Z,514
2023-02-16T01:51:30.093Z,514.2
2023-02-16T01:52:32.031Z,514
2023-02-16T01:53:34.598Z,514.4
2023-02-16T01:54:37.106Z,514.1
2023-02-16T01:55:39.370Z,514.2
2023-02-16T01:56:41.605Z,514.2
2023-02-16T01:57:44.164Z,514.3
2023-02-16T01:58:46.685Z,514.6
2023-02-16T01:59:48.912Z,514.5
2023-02-16T02:00:51.451Z,514.9
2023-02-16T02:01:53.952Z,514.5
2023-02-16T02:02:56.811Z,514.7
2023-02-16T02:03:59.601Z,514.4
2023-02-16T02:05:02.259Z,514.6
2023-02-16T02:06:04.761Z,514.7
2023-02-16T02:07:07.298Z,514.7
2023-02-16T02:08:09.796Z,514.8
2023-02-16T02:09:12.340Z,515
2023-02-16T02:10:14.869Z,515.4
2023-02-16T02:11:17.378Z,515.1
2023-02-16T02:12:19.607Z,515.3
2023-02-16T02:13:22.129Z,515.4
2023-02-16T02:14:24.708Z,515.6
2023-02-16T02:15:27.205Z,515.5
2023-02-16T02:16:30.175Z,515.6
2023-02-16T02:17:32.685Z,515.3
2023-02-16T02:18:35.196Z,516.1
2023-02-16T02:19:37.430Z,516.1
2023-02-16T02:20:40.152Z,515.9
2023-02-16T02:21:42.374Z,515.9
2023-02-16T02:22:44.879Z,515.5
2023-02-16T02:23:47.135Z,515.8
2023-02-16T02:24:49.644Z,516
2023-02-16T02:25:52.181Z,516.1
2023-02-16T02:26:54.103Z,516.1
2023-02-16T02:27:56.329Z,516.2
2023-02-16T02:28:58.536Z,516.2
2023-02-16T02:30:01.454Z,516
2023-02-16T02:31:06.529Z,516
2023-02-16T02:32:09.636Z,516.6
2023-02-16T02:33:12.175Z,516.5
2023-02-16T02:34:14.666Z,516.4
2023-02-16T02:35:17.204Z,516.4
2023-02-16T02:36:19.949Z,516.7
2023-02-16T02:37:22.459Z,516.9
2023-02-16T02:38:25.006Z,516.5
2023-02-16T02:39:26.955Z,517
2023-02-16T02:40:29.445Z,516.4
2023-02-16T02:41:31.944Z,516.8
2023-02-16T02:42:34.443Z,516.9
2023-02-16T02:43:36.951Z,516.6
2023-02-16T02:44:39.464Z,517.2
2023-02-16T02:45:41.970Z,516.8
2023-02-16T02:46:44.774Z,516.7
2023-02-16T02:47:47.072Z,517
2023-02-16T02:48:49.575Z,516.7
2023-02-16T02:49:52.096Z,517.2
2023-02-16T02:50:54.600Z,517.2
2023-02-16T02:51:57.230Z,517.7
2023-02-16T02:52:59.750Z,517.4
2023-02-16T02:54:01.979Z,517.1
2023-02-16T02:55:03.961Z,517.3
2023-02-16T02:56:05.890Z,517.4
2023-02-16T02:57:08.500Z,517.5
2023-02-16T02:58:11.036Z,517.6
2023-02-16T02:59:13.575Z,517.9
2023-02-16T03:00:15.799Z,517.1
2023-02-16T03:01:18.548Z,517.5
2023-02-16T03:02:21.412Z,517.8
2023-02-16T03:03:23.705Z,517.5
2023-02-16T03:04:26.202Z,517.6
2023-02-16T03:05:28.725Z,518.1
2023-02-16T03:06:31.307Z,517.9
2023-02-16T03:07:33.922Z,517.6
2023-02-16T03:08:36.117Z,518.2
2023-02-16T03:09:38.617Z,517.6
2023-02-16T03:10:40.868Z,517.4
2023-02-16T03:11:42.583Z,517.6
2023-02-16T03:12:44.839Z,517.6
2023-02-16T03:13:47.050Z,517.2
2023-02-16T03:14:49.556Z,517.4
2023-02-16T03:15:52.051Z,517.5
2023-02-16T03:16:54.554Z,517.4
2023-02-16T03:17:57.076Z,517.7
2023-02-16T03:18:59.558Z,517.4
2023-02-16T03:20:01.798Z,517.7
2023-02-16T03:21:05.953Z,517.6
2023-02-16T03:22:08.600Z,518
2023-02-16T03:23:11.182Z,517.8
2023-02-16T03:24:13.131Z,518
2023-02-16T03:25:15.638Z,518.3
2023-02-16T03:26:18.196Z,517.8
2023-02-16T03:27:20.706Z,517.7
2023-02-16T03:28:22.960Z,518.2
2023-02-16T03:29:25.464Z,517.5
2023-02-16T03:30:28.930Z,517.7
2023-02-16T03:31:32.242Z,517.7
2023-02-16T03:32:34.812Z,517.2
2023-02-16T03:33:37.040Z,517
2023-02-16T03:34:39.583Z,517.4
2023-02-16T03:35:42.060Z,517.3
2023-02-16T03:36:44.585Z,517.8
2023-02-16T03:37:46.929Z,517.6
2023-02-16T03:38:49.374Z,516.8
2023-02-16T03:39:51.874Z,516.9
2023-02-16T03:40:54.401Z,517.3
2023-02-16T03:41:56.951Z,517
2023-02-16T03:42:59.294Z,516.8
2023-02-16T03:44:01.544Z,517
2023-02-16T03:45:04.052Z,516.9
2023-02-16T03:46:06.826Z,517
2023-02-16T03:47:09.381Z,516.9
2023-02-16T03:48:11.921Z,516.7
2023-02-16T03:49:13.894Z,516.9
2023-02-16T03:50:16.121Z,516.9
2023-02-16T03:51:18.371Z,516.5
2023-02-16T03:52:20.876Z,516.6
2023-02-16T03:53:23.522Z,516.2
2023-02-16T03:54:26.218Z,516.1
2023-02-16T03:55:28.726Z,516
2023-02-16T03:56:31.252Z,515.9
2023-02-16T03:57:33.798Z,516
2023-02-16T03:58:36.298Z,515.9
2023-02-16T03:59:38.241Z,515.9
2023-02-16T04:00:40.747Z,515.8
2023-02-16T04:01:42.867Z,515.9
2023-02-16T04:02:45.363Z,515.7
2023-02-16T04:03:48.200Z,515.3
2023-02-16T04:04:50.756Z,515.4
2023-02-16T04:05:53.289Z,515.3
2023-02-16T04:06:55.207Z,515.2
2023-02-16T04:07:57.718Z,515.3
2023-02-16T04:09:00.295Z,515.4
2023-02-16T04:10:03.336Z,515.6
2023-02-16T04:11:07.240Z,515.8
2023-02-16T04:12:09.738Z,515.8
2023-02-16T04:13:11.956Z,515.7
2023-02-16T04:14:14.456Z,515.7
2023-02-16T04:15:16.991Z,515.4
2023-02-16T04:16:19.650Z,515.4
2023-02-16T04:17:21.875Z,515.3
2023-02-16T04:18:24.378Z,514.9
2023-02-16T04:19:26.893Z,515.4
2023-02-16T04:20:29.149Z,515.2
2023-02-16T04:21:31.645Z,515.4
2023-02-16T04:22:33.626Z,515.2
2023-02-16T04:23:36.160Z,515.3
2023-02-16T04:24:38.420Z,515.2
2023-02-16T04:25:41.010Z,515.4
2023-02-16T04:26:43.568Z,515.4
2023-02-16T04:27:46.086Z,515.6
2023-02-16T04:28:48.591Z,515.6
2023-02-16T04:29:50.532Z,515.6
2023-02-16T04:30:53.070Z,515.6
2023-02-16T04:31:56.533Z,515.5
2023-02-16T04:32:59.089Z,515.3
2023-02-16T04:34:01.588Z,515.2
2023-02-16T04:35:03.785Z,515.3
2023-02-16T04:36:06.050Z,515.7
2023-02-16T04:37:08.560Z,515.5
2023-02-16T04:38:10.778Z,515.4
2023-02-16T04:39:12.711Z,516.1
2023-02-16T04:40:15.469Z,515.9
2023-02-16T04:41:17.943Z,515.4
2023-02-16T04:42:20.455Z,515.2
2023-02-16T04:43:22.655Z,515.9
2023-02-16T04:44:25.162Z,515.8
2023-02-16T04:45:27.396Z,515.5
2023-02-16T04:46:30.167Z,515.1
2023-02-16T04:47:32.747Z,515.4
2023-02-16T04:48:35.231Z,515.4
2023-02-16T04:49:37.494Z,515.3
2023-02-16T04:50:39.754Z,515.2
2023-02-16T04:51:41.961Z,515.8
2023-02-16T04:52:44.190Z,515.2
2023-02-16T04:53:46.139Z,515.5
2023-02-16T04:54:48.655Z,515.8
2023-02-16T04:55:51.226Z,515.5
2023-02-16T04:56:53.950Z,515
2023-02-16T04:57:56.465Z,515.1
2023-02-16T04:58:58.681Z,515.3
2023-02-16T05:00:01.253Z,515.5
2023-02-16T05:01:06.683Z,515.2
2023-02-16T05:02:09.115Z,515.1
2023-02-16T05:03:11.645Z,515.2
2023-02-16T05:04:14.538Z,515.3
2023-02-16T05:05:17.029Z,515.3
2023-02-16T05:06:19.554Z,515.4
2023-02-16T05:07:22.195Z,515.8
2023-02-16T05:08:24.696Z,515.4
2023-02-16T05:09:27.232Z,515.5
2023-02-16T05:10:29.725Z,515.4
2023-02-16T05:11:32.318Z,515.3
2023-02-16T05:12:35.033Z,515.3
2023-02-16T05:13:37.532Z,515.3
2023-02-16T05:14:39.779Z,515.5
2023-02-16T05:15:42.561Z,515.3
2023-02-16T05:16:45.061Z,515
2023-02-16T05:17:47.550Z,515
2023-02-16T05:18:50.070Z,515.1
2023-02-16T05:19:52.289Z,515
2023-02-16T05:20:54.527Z,515.1
2023-02-16T05:21:56.841Z,515.2
2023-02-16T05:22:59.340Z,515.6
2023-02-16T05:24:01.865Z,515.4
2023-02-16T05:25:04.377Z,515.3
2023-02-16T05:26:06.627Z,515.7
2023-02-16T05:27:08.860Z,515.5
2023-02-16T05:28:11.763Z,515.4
2023-02-16T05:29:14.247Z,515.3
2023-02-16T05:30:16.855Z,515
2023-02-16T05:31:19.968Z,515
2023-02-16T05:32:22.659Z,515
2023-02-16T05:33:24.904Z,514.8
2023-02-16T05:34:27.454Z,514.5
2023-02-16T05:35:29.984Z,514.9
2023-02-16T05:36:32.506Z,514.8
2023-02-16T05:37:34.745Z,514.8
2023-02-16T05:38:37.253Z,515
2023-02-16T05:39:39.756Z,514.7
2023-02-16T05:40:42.271Z,514.7
2023-02-16T05:41:44.504Z,514.3
2023-02-16T05:42:46.729Z,514.9
2023-02-16T05:43:49.405Z,514.3
2023-02-16T05:44:51.924Z,514.2
2023-02-16T05:45:54.754Z,514.2
2023-02-16T05:46:56.972Z,514.4
2023-02-16T05:47:59.222Z,514.3
2023-02-16T05:49:01.455Z,513.8
2023-02-16T05:50:03.934Z,513.7
2023-02-16T05:51:07.420Z,513.5
2023-02-16T05:52:09.641Z,513.6
2023-02-16T05:53:12.129Z,513.4
2023-02-16T05:54:14.619Z,513.1
2023-02-16T05:55:17.191Z,513.1
2023-02-16T05:56:19.683Z,513
2023-02-16T05:57:22.188Z,512.8
2023-02-16T05:58:24.196Z,512.4
2023-02-16T05:59:26.794Z,512.7
2023-02-16T06:00:29.338Z,512.9
2023-02-16T06:01:31.837Z,512.6
2023-02-16T06:02:34.581Z,512.4
2023-02-16T06:03:37.648Z,512.4
2023-02-16T06:04:40.286Z,512.5
2023-02-16T06:05:42.777Z,512.1
2023-02-16T06:06:45.300Z,511.9
2023-02-16T06:07:47.831Z,511.9
2023-02-16T06:08:50.335Z,512.1
2023-02-16T06:09:52.290Z,511.2
2023-02-16T06:10:54.812Z,511.8
2023-02-16T06:11:57.337Z,512.3
2023-02-16T06:12:59.557Z,512
2023-02-16T06:14:02.123Z,511.8
2023-02-16T06:15:04.441Z,511.9
2023-02-16T06:16:07.344Z,512.1
2023-02-16T06:17:09.903Z,511.6
2023-02-16T06:18:11.857Z,511.5
2023-02-16T06:19:14.117Z,511.2
2023-02-16T06:20:16.643Z,511.5
2023-02-16T06:21:19.131Z,511.3
2023-02-16T06:22:21.680Z,511.7
2023-02-16T06:23:24.180Z,511.8
2023-02-16T06:24:26.455Z,511.1
2023-02-16T06:25:29.005Z,511.3
2023-02-16T06:26:31.648Z,511.3
2023-02-16T06:27:34.140Z,511.1
2023-02-16T06:28:36.397Z,511.1
2023-02-16T06:29:38.946Z,511.1
2023-02-16T06:30:41.554Z,511
2023-02-16T06:31:44.580Z,511.3
2023-02-16T06:32:46.893Z,510.9
2023-02-16T06:33:49.118Z,510.7
2023-02-16T06:34:51.631Z,510.9
2023-02-16T06:35:54.132Z,510.8
2023-02-16T06:36:56.382Z,510.8
2023-02-16T06:37:58.620Z,510.7
2023-02-16T06:39:01.151Z,510.7
2023-02-16T06:40:03.427Z,510.7
2023-02-16T06:41:07.584Z,510.3
2023-02-16T06:42:09.813Z,510.4
2023-02-16T06:43:12.319Z,510.3
2023-02-16T06:44:14.848Z,510.1
2023-02-16T06:45:17.107Z,510.3
2023-02-16T06:46:19.646Z,510.1
2023-02-16T06:47:22.181Z,510.3
2023-02-16T06:48:24.406Z,510.3
2023-02-16T06:50:31.949Z,509.5
2023-02-16T06:51:34.198Z,509.6
2023-02-16T06:52:36.701Z,509.3
2023-02-16T06:53:38.919Z,509.1
2023-02-16T06:54:41.158Z,509.2
2023-02-16T06:55:43.867Z,509.3
2023-02-16T06:56:46.379Z,509.2
2023-02-16T06:57:49.005Z,509.5
2023-02-16T06:58:51.766Z,509.5
2023-02-16T06:59:54.315Z,509
2023-02-16T07:00:56.949Z,509.2
2023-02-16T07:01:59.725Z,508.9
2023-02-16T07:03:02.068Z,509.2
2023-02-16T07:04:04.713Z,509.3
2023-02-16T07:05:07.021Z,509.3
2023-02-16T07:06:09.300Z,509.5
2023-02-16T07:07:11.819Z,509.5
2023-02-16T07:08:14.422Z,508.8
2023-02-16T07:09:16.951Z,509.3
2023-02-16T07:10:19.158Z,509
2023-02-16T07:11:21.703Z,509.4
2023-02-16T07:12:24.213Z,509.5
2023-02-16T07:13:26.470Z,509.4
2023-02-16T07:14:28.890Z,509.2
2023-02-16T07:15:31.132Z,509.4
2023-02-16T07:16:34.070Z,509.1
2023-02-16T07:17:36.772Z,509.3
2023-02-16T07:18:39.251Z,509.2
2023-02-16T07:19:41.521Z,509.2
2023-02-16T07:20:43.766Z,509.1
2023-02-16T07:21:46.282Z,509
2023-02-16T07:22:47.675Z,508.9
2023-02-16T07:23:50.197Z,508.7
2023-02-16T07:24:52.759Z,508.5
2023-02-16T07:25:55.256Z,508.8
2023-02-16T07:26:57.759Z,508.2
2023-02-16T07:28:00.263Z,508.7
2023-02-16T07:29:02.529Z,508.2
2023-02-16T07:30:05.022Z,508.1
2023-02-16T07:31:09.826Z,507.6
2023-02-16T07:32:12.391Z,508.1
2023-02-16T07:33:15.066Z,507.9
2023-02-16T07:34:18.172Z,508.2
2023-02-16T07:35:21.329Z,508
2023-02-16T07:36:23.458Z,508.1
2023-02-16T07:37:25.712Z,508.2
2023-02-16T07:38:28.218Z,508.1
2023-02-16T07:39:30.485Z,508.3
2023-02-16T07:40:32.727Z,508.3
2023-02-16T07:41:35.223Z,508.1
2023-02-16T07:42:37.192Z,507.6
2023-02-16T07:43:39.829Z,508.2
2023-02-16T07:44:42.322Z,507.7
2023-02-16T07:45:45.046Z,507.6
2023-02-16T07:46:47.613Z,507.4
2023-02-16T07:47:50.203Z,507.1
2023-02-16T07:48:52.866Z,506.7
2023-02-16T07:49:54.822Z,507.1
2023-02-16T07:50:57.335Z,506.9
2023-02-16T07:51:59.853Z,506.6
2023-02-16T07:53:02.344Z,507.2
2023-02-16T07:54:04.561Z,507
2023-02-16T07:55:06.788Z,506.9
2023-02-16T07:56:09.026Z,507
2023-02-16T07:57:11.568Z,506.4
2023-02-16T07:58:13.854Z,506.7
2023-02-16T07:59:16.358Z,506.7
2023-02-16T08:00:18.901Z,506.5
2023-02-16T08:01:20.923Z,506.6
2023-02-16T08:02:24.034Z,506.5
2023-02-16T08:03:27.810Z,506.3
2023-02-16T08:04:30.589Z,506.5
2023-02-16T08:05:33.124Z,506.3
2023-02-16T08:06:35.647Z,506.2
2023-02-16T08:07:37.909Z,506.3
2023-02-16T08:08:40.132Z,506.5
2023-02-16T08:09:42.651Z,506.5
2023-02-16T08:10:44.597Z,506.2
2023-02-16T08:11:47.126Z,506.1
2023-02-16T08:12:49.803Z,506
2023-02-16T08:13:51.810Z,506.3
2023-02-16T08:14:54.349Z,506
2023-02-16T08:15:56.913Z,505.9
2023-02-16T08:16:59.796Z,506.3
2023-02-16T08:18:02.037Z,506.2
2023-02-16T08:19:04.312Z,505.7
2023-02-16T08:20:07.053Z,505.9
2023-02-16T08:21:09.599Z,505.6
2023-02-16T08:22:11.869Z,505.3
2023-02-16T08:23:13.829Z,505.3
2023-02-16T08:24:16.328Z,505.6
2023-02-16T08:25:18.560Z,505.7
2023-02-16T08:26:21.103Z,505.7
2023-02-16T08:27:23.351Z,505.5
2023-02-16T08:28:25.864Z,505.8
2023-02-16T08:29:28.375Z,506.2
2023-02-16T08:30:31.201Z,506
2023-02-16T08:31:34.258Z,506.1
2023-02-16T08:32:36.235Z,505.9
2023-02-16T08:33:38.749Z,505.8
2023-02-16T08:35:46.360Z,505.9
2023-02-16T08:36:48.879Z,506.1
2023-02-16T08:37:51.398Z,506.2
2023-02-16T08:38:53.653Z,506
2023-02-16T08:39:55.897Z,506.4
2023-02-16T08:40:58.426Z,505.9
2023-02-16T08:42:00.659Z,506.1
2023-02-16T08:43:02.898Z,506.4
2023-02-16T08:44:05.401Z,506.1
2023-02-16T08:45:07.696Z,506.1
2023-02-16T08:46:10.676Z,506.7
2023-02-16T08:47:12.930Z,506.1
2023-02-16T08:48:15.439Z,506.1
2023-02-16T08:49:17.667Z,506.1
2023-02-16T08:50:19.929Z,506.3
2023-02-16T08:51:22.550Z,506.4
2023-02-16T08:52:25.064Z,506.2
2023-02-16T08:53:27.030Z,506.1
2023-02-16T08:54:29.583Z,506.5
2023-02-16T08:55:32.166Z,506.6
2023-02-16T08:56:34.467Z,506.6
2023-02-16T08:57:37.003Z,506.6
2023-02-16T08:58:40.138Z,506.6
2023-02-16T08:59:42.734Z,506.5
2023-02-16T09:00:45.113Z,506.4
2023-02-16T09:01:47.369Z,506.5
2023-02-16T09:02:50.295Z,506.1
2023-02-16T09:03:52.540Z,506.6
2023-02-16T09:04:55.056Z,506.6
2023-02-16T09:05:57.581Z,506.7
2023-02-16T09:07:00.305Z,506.4
2023-02-16T09:08:02.546Z,506.1
2023-02-16T09:09:05.051Z,506
2023-02-16T09:10:07.726Z,506
2023-02-16T09:11:10.226Z,506.4
2023-02-16T09:12:12.534Z,505.9
2023-02-16T09:13:15.215Z,506.4
2023-02-16T09:14:17.460Z,506.2
2023-02-16T09:15:19.433Z,506.2
2023-02-16T09:16:22.153Z,506.1
2023-02-16T09:17:24.394Z,506.2
2023-02-16T09:18:26.902Z,505.7
2023-02-16T09:19:29.589Z,506.1
2023-02-16T09:20:32.099Z,506.1
2023-02-16T09:21:34.447Z,506.2
2023-02-16T09:22:37.241Z,506
2023-02-16T09:23:39.200Z,506
2023-02-16T09:24:41.724Z,505.8
2023-02-16T09:25:44.265Z,505.4
2023-02-16T09:26:46.941Z,505.7
2023-02-16T09:27:49.466Z,505.6
2023-02-16T09:28:52.035Z,505.9
2023-02-16T09:29:54.739Z,505.2
2023-02-16T09:30:57.633Z,505.8
2023-02-16T09:32:00.259Z,505.8
2023-02-16T09:33:02.286Z,505.5
2023-02-16T09:34:04.548Z,505.7
2023-02-16T09:35:06.529Z,505.8
2023-02-16T09:36:08.887Z,505.5
2023-02-16T09:37:11.302Z,505.8
2023-02-16T09:38:14.004Z,506
2023-02-16T09:39:16.553Z,505.4
2023-02-16T09:40:18.777Z,505.7
2023-02-16T09:41:20.722Z,505.8
2023-02-16T09:42:22.696Z,505.7
2023-02-16T09:43:25.209Z,505.5
2023-02-16T09:44:27.430Z,505.9
2023-02-16T09:45:29.637Z,505.9
2023-02-16T09:46:32.299Z,505.8
2023-02-16T09:47:34.548Z,506
2023-02-16T09:48:37.238Z,506.1
2023-02-16T09:49:39.476Z,506.2
2023-02-16T09:51:46.988Z,506.1
2023-02-16T09:53:56.804Z,506.3
2023-02-16T09:54:59.085Z,506.3
2023-02-16T09:56:01.648Z,506.3
2023-02-16T09:57:04.164Z,506.7
2023-02-16T09:58:06.646Z,506.2
2023-02-16T09:59:12.046Z,506.4
2023-02-16T10:00:14.549Z,506.5
2023-02-16T10:01:17.322Z,506.3
2023-02-16T10:02:19.435Z,506.1
2023-02-16T10:03:22.202Z,506.2
2023-02-16T10:04:24.234Z,506.5
2023-02-16T10:05:26.772Z,506.3
2023-02-16T10:06:29.028Z,506.1
2023-02-16T10:07:31.568Z,506.1
2023-02-16T10:08:34.091Z,505.9
2023-02-16T10:09:36.954Z,506.5
2023-02-16T10:11:44.445Z,506.2
2023-02-16T10:12:46.934Z,506
2023-02-16T10:13:49.431Z,506.1
2023-02-16T10:14:51.967Z,505.8
2023-02-16T10:15:55.368Z,506.2
2023-02-16T10:16:57.921Z,506.3
2023-02-16T10:18:00.444Z,505.9
2023-02-16T10:19:03.011Z,505.9
2023-02-16T10:20:05.553Z,505.9
2023-02-16T10:21:08.680Z,506.2
2023-02-16T10:22:10.946Z,506.3
2023-02-16T10:23:13.457Z,506.3
2023-02-16T10:24:15.993Z,506.3
2023-02-16T10:25:18.346Z,506.3
2023-02-16T10:26:20.872Z,505.9
2023-02-16T10:27:23.094Z,505.8
2023-02-16T10:28:25.640Z,506
2023-02-16T10:29:27.905Z,505.6
2023-02-16T10:30:30.779Z,505.7
2023-02-16T10:31:33.843Z,505.9
2023-02-16T10:33:41.336Z,505.7
2023-02-16T10:34:43.560Z,505.7
2023-02-16T10:35:46.093Z,506.4
2023-02-16T10:36:48.598Z,506.2
2023-02-16T10:37:51.236Z,505.9
2023-02-16T10:38:53.507Z,506.5
2023-02-16T10:39:56.022Z,505.8
2023-02-16T10:40:58.777Z,505.9
2023-02-16T10:42:01.023Z,506.2
2023-02-16T10:43:03.530Z,506.1
2023-02-16T10:44:06.020Z,506
2023-02-16T10:45:08.534Z,505.9
2023-02-16T10:46:11.078Z,506.1
2023-02-16T10:47:13.733Z,505.8
2023-02-16T10:48:15.946Z,506.2
2023-02-16T10:49:18.483Z,506
2023-02-16T10:50:20.975Z,505.9
2023-02-16T10:52:29.152Z,506.6
2023-02-16T10:53:31.821Z,507
2023-02-16T10:54:34.377Z,506.8
2023-02-16T10:55:36.922Z,506.7
2023-02-16T10:56:39.549Z,507.2
2023-02-16T10:57:41.884Z,507
2023-02-16T10:58:44.382Z,507.3
2023-02-16T10:59:46.962Z,507.2
2023-02-16T11:00:49.492Z,507
2023-02-16T11:01:52.101Z,507.3
2023-02-16T11:02:54.721Z,507.5
2023-02-16T11:03:57.225Z,507.6
2023-02-16T11:04:59.523Z,507.3
2023-02-16T11:06:02.643Z,507.2
2023-02-16T11:07:05.099Z,507.3
2023-02-16T11:08:07.369Z,507.4
2023-02-16T11:09:09.899Z,507.2
2023-02-16T11:10:12.455Z,507
2023-02-16T11:11:14.993Z,507.4
2023-02-16T11:12:17.599Z,507.5
2023-02-16T11:13:20.141Z,507.6
2023-02-16T11:14:22.369Z,507.8
2023-02-16T11:15:24.885Z,507.9
2023-02-16T11:16:27.396Z,507.7
2023-02-16T11:17:29.631Z,507.8
2023-02-16T11:18:32.152Z,508.2
2023-02-16T11:19:34.681Z,508.8
2023-02-16T11:20:36.908Z,508.8
2023-02-16T11:21:39.115Z,509.2
2023-02-16T11:22:41.678Z,509.1
2023-02-16T11:23:44.183Z,509.5
2023-02-16T11:24:46.423Z,509.4
2023-02-16T11:25:48.696Z,509.4
2023-02-16T11:26:51.215Z,510
2023-02-16T11:27:53.819Z,509
2023-02-16T11:28:56.367Z,510
2023-02-16T11:29:58.972Z,509.8
2023-02-16T11:31:02.410Z,509.4
2023-02-16T11:32:05.255Z,509.8
2023-02-16T11:33:07.221Z,509.7
2023-02-16T11:34:09.761Z,510
2023-02-16T11:35:12.454Z,510
2023-02-16T11:36:14.952Z,509.9
2023-02-16T11:37:17.497Z,510.1
2023-02-16T11:38:19.713Z,510.5
2023-02-16T11:39:22.301Z,510.4
2023-02-16T11:40:24.301Z,510.9
2023-02-16T11:41:26.797Z,510.7
2023-02-16T11:42:28.795Z,511
2023-02-16T11:43:31.418Z,510.5
2023-02-16T11:44:34.165Z,510.8
2023-02-16T11:45:36.707Z,511.3
2023-02-16T11:46:39.391Z,511.3
2023-02-16T11:47:41.640Z,511.9
2023-02-16T11:48:44.135Z,511.2
2023-02-16T11:49:46.353Z,511.7
2023-02-16T11:50:48.883Z,511.8
2023-02-16T11:51:51.165Z,511.8
2023-02-16T11:52:53.689Z,512.2
2023-02-16T11:53:56.203Z,511.8
2023-02-16T11:54:58.855Z,512.3
2023-02-16T11:56:01.111Z,512
2023-02-16T11:57:03.674Z,511.9
2023-02-16T11:58:06.200Z,512.6
2023-02-16T11:59:08.550Z,512.4
2023-02-16T12:00:11.049Z,511.7
2023-02-16T12:01:13.585Z,512.4
2023-02-16T12:02:16.105Z,512.4
2023-02-16T12:03:18.351Z,512.2
2023-02-16T12:04:20.898Z,512.5
2023-02-16T12:05:23.006Z,512.9
2023-02-16T12:06:24.944Z,513.1
2023-02-16T12:07:27.465Z,513.2
2023-02-16T12:08:29.962Z,512.9
2023-02-16T12:09:33.184Z,513.8
2023-02-16T12:10:35.701Z,513.9
2023-02-16T12:11:38.230Z,514
2023-02-16T12:12:40.762Z,514.5
2023-02-16T12:13:43.285Z,514.4
2023-02-16T12:14:45.938Z,514.5
2023-02-16T12:15:48.461Z,514.7
2023-02-16T12:16:50.798Z,514.4
2023-02-16T12:17:53.014Z,514.6
2023-02-16T12:18:55.002Z,514.5
2023-02-16T12:19:57.514Z,515.1
2023-02-16T12:20:59.768Z,515.2
2023-02-16T12:22:01.716Z,514.7
2023-02-16T12:23:03.959Z,515.2
2023-02-16T12:24:06.488Z,514.7
2023-02-16T12:25:09.016Z,515.1
2023-02-16T12:26:10.989Z,515.2
2023-02-16T12:27:13.238Z,515.3
2023-02-16T12:28:15.778Z,515.2
2023-02-16T12:29:18.309Z,515.6
2023-02-16T12:30:21.171Z,516.1
2023-02-16T12:31:24.592Z,515.8
2023-02-16T12:32:26.860Z,515.4
2023-02-16T12:33:29.105Z,515.8
2023-02-16T12:34:31.703Z,514.5
2023-02-16T12:35:34.258Z,515.7
2023-02-16T12:36:36.221Z,515.4
2023-02-16T12:37:38.774Z,515.9
2023-02-16T12:38:41.014Z,515.7
2023-02-16T12:39:43.271Z,515.9
2023-02-16T12:40:45.494Z,516.3
2023-02-16T12:41:48.013Z,515.7
2023-02-16T12:42:50.557Z,516.2
2023-02-16T12:43:53.082Z,516.5
2023-02-16T12:44:55.655Z,516.7
2023-02-16T12:45:58.559Z,516.1
2023-02-16T12:47:01.093Z,516.3
2023-02-16T12:48:03.338Z,515.9
2023-02-16T12:49:05.860Z,516.8
2023-02-16T12:50:08.097Z,517.1
2023-02-16T12:51:10.629Z,517.1
2023-02-16T12:52:13.185Z,516.8
2023-02-16T12:53:15.357Z,517
2023-02-16T12:54:17.893Z,516.9
2023-02-16T12:55:20.417Z,517.2
2023-02-16T12:56:22.967Z,517.7
2023-02-16T12:57:24.926Z,517.1
2023-02-16T12:58:27.152Z,518
2023-02-16T12:59:29.662Z,517.5
2023-02-16T13:00:31.934Z,517.5
2023-02-16T13:01:34.952Z,517.9
2023-02-16T13:02:37.519Z,517.7
2023-02-16T13:03:40.655Z,517.4
2023-02-16T13:04:42.905Z,518.1
2023-02-16T13:05:45.428Z,518.5
2023-02-16T13:06:47.967Z,518.6
2023-02-16T13:07:50.228Z,518.1
2023-02-16T13:08:52.741Z,518
2023-02-16T13:09:54.727Z,518.7
2023-02-16T13:10:56.931Z,518.5
2023-02-16T13:12:02.367Z,519.3
2023-02-16T13:13:04.754Z,518.9
2023-02-16T13:14:07.105Z,518.8
2023-02-16T13:15:09.322Z,519.1
2023-02-16T13:17:17.535Z,519.4
2023-02-16T13:18:20.085Z,519.5
2023-02-16T13:19:22.324Z,520.1
2023-02-16T13:20:24.596Z,520
2023-02-16T13:21:27.121Z,519.9
2023-02-16T13:22:29.119Z,519.9
2023-02-16T13:23:31.675Z,520.1
2023-02-16T13:24:33.943Z,520.4
2023-02-16T13:25:36.734Z,520.4
2023-02-16T13:26:38.871Z,520.3
2023-02-16T13:27:41.545Z,520.1
2023-02-16T13:28:44.975Z,520.3
2023-02-16T13:29:47.837Z,520.1
2023-02-16T13:30:51.566Z,520
2023-02-16T13:31:54.645Z,520.1
2023-02-16T13:32:57.418Z,519.7
2023-02-16T13:33:59.693Z,519.6
2023-02-16T13:35:01.936Z,520.1
2023-02-16T13:36:06.767Z,519.4
2023-02-16T13:37:09.194Z,520
2023-02-16T13:38:11.445Z,519.8
2023-02-16T13:39:13.388Z,519.6